sensor_id;sensor_type;location;lat;lon;timestamp;temperature;humidity
2453;DHT22;63678;47.994;7.854;2023-04-24T00:02:05;12.90;99.90
2453;DHT22;63678;47.994;7.854;2023-04-24T00:04:41;12.80;99.90
2453;DHT22;63678;47.994;7.854;2023-04-24T00:07:17;12.90;99.90
2453;DHT22;63678;47.994;7.854;2023-04-24T00:09:49;12.80;99.90
2453;DHT22;63678;47.994;7.854;2023-04-24T00:12:22;12.80;99.90
2453;DHT22;63678;47.994;7.854;2023-04-24T00:14:54;12.80;99.90
2453;DHT22;63678;47.994;7.854;2023-04-24T00:20:00;12.80;99.90
2453;DHT22;63678;47.994;7.854;2023-04-24T00:22:33;12.80;99.90
2453;DHT22;63678;47.994;7.854;2023-04-24T00:25:06;12.80;99.90
2453;DHT22;63678;47.994;7.854;2023-04-24T00:27:38;12.80;99.90
2453;DHT22;63678;47.994;7.854;2023-04-24T00:30:11;12.80;99.90
2453;DHT22;63678;47.994;7.854;2023-04-24T00:32:43;12.80;99.90
2453;DHT22;63678;47.994;7.854;2023-04-24T00:35:16;12.70;99.90
2453;DHT22;63678;47.994;7.854;2023-04-24T00:37:48;12.70;99.90
2453;DHT22;63678;47.994;7.854;2023-04-24T00:42:54;12.70;99.90
2453;DHT22;63678;47.994;7.854;2023-04-24T00:45:26;12.70;99.90
2453;DHT22;63678;47.994;7.854;2023-04-24T00:48:00;12.60;99.90
2453;DHT22;63678;47.994;7.854;2023-04-24T00:50:35;12.60;99.90
2453;DHT22;63678;47.994;7.854;2023-04-24T00:53:08;12.60;99.90
2453;DHT22;63678;47.994;7.854;2023-04-24T00:55:40;12.40;99.90
2453;DHT22;63678;47.994;7.854;2023-04-24T00:58:13;12.50;99.90
2453;DHT22;63678;47.994;7.854;2023-04-24T01:00:45;12.50;99.90
2453;DHT22;63678;47.994;7.854;2023-04-24T01:05:55;12.50;99.90
2453;DHT22;63678;47.994;7.854;2023-04-24T01:08:28;12.50;99.90
2453;DHT22;63678;47.994;7.854;2023-04-24T01:11:03;12.50;99.90
2453;DHT22;63678;47.994;7.854;2023-04-24T01:13:36;12.40;99.90
2453;DHT22;63678;47.994;7.854;2023-04-24T01:16:09;12.40;99.90
2453;DHT22;63678;47.994;7.854;2023-04-24T01:18:42;12.40;99.90
2453;DHT22;63678;47.994;7.854;2023-04-24T01:21:16;12.40;99.90
2453;DHT22;63678;47.994;7.854;2023-04-24T01:23:48;12.50;99.90
2453;DHT22;63678;47.994;7.854;2023-04-24T01:26:23;12.50;99.90
2453;DHT22;63678;47.994;7.854;2023-04-24T01:28:57;12.40;99.90
2453;DHT22;63678;47.994;7.854;2023-04-24T01:31:30;12.50;99.90
2453;DHT22;63678;47.994;7.854;2023-04-24T01:36:36;12.40;99.90
2453;DHT22;63678;47.994;7.854;2023-04-24T01:41:43;12.40;99.90
2453;DHT22;63678;47.994;7.854;2023-04-24T01:44:16;12.40;99.90
2453;DHT22;63678;47.994;7.854;2023-04-24T01:46:49;12.30;99.90
2453;DHT22;63678;47.994;7.854;2023-04-24T01:54:28;12.20;99.90
2453;DHT22;63678;47.994;7.854;2023-04-24T01:57:07;12.20;99.90
2453;DHT22;63678;47.994;7.854;2023-04-24T02:00:03;12.20;99.90
2453;DHT22;63678;47.994;7.854;2023-04-24T02:02:44;12.20;99.90
2453;DHT22;63678;47.994;7.854;2023-04-24T02:07:52;12.20;99.90
2453;DHT22;63678;47.994;7.854;2023-04-24T02:12:57;12.20;99.90
2453;DHT22;63678;47.994;7.854;2023-04-24T02:25:45;12.00;99.90
2453;DHT22;63678;47.994;7.854;2023-04-24T02:28:17;12.00;99.90
2453;DHT22;63678;47.994;7.854;2023-04-24T02:30:50;11.90;99.90
2453;DHT22;63678;47.994;7.854;2023-04-24T02:35:59;11.90;99.90
2453;DHT22;63678;47.994;7.854;2023-04-24T02:41:04;11.90;99.90
2453;DHT22;63678;47.994;7.854;2023-04-24T02:48:43;12.00;99.90
2453;DHT22;63678;47.994;7.854;2023-04-24T02:53:48;12.00;99.90
2453;DHT22;63678;47.994;7.854;2023-04-24T02:56:20;12.00;99.90
2453;DHT22;63678;47.994;7.854;2023-04-24T02:58:53;12.10;99.90
2453;DHT22;63678;47.994;7.854;2023-04-24T03:06:31;12.10;99.90
2453;DHT22;63678;47.994;7.854;2023-04-24T03:09:04;12.10;99.90
2453;DHT22;63678;47.994;7.854;2023-04-24T03:11:37;12.10;99.90
2453;DHT22;63678;47.994;7.854;2023-04-24T03:19:17;12.00;99.90
2453;DHT22;63678;47.994;7.854;2023-04-24T03:22:04;12.00;99.90
2453;DHT22;63678;47.994;7.854;2023-04-24T03:24:37;12.10;99.90
2453;DHT22;63678;47.994;7.854;2023-04-24T03:29:58;12.00;99.90
2453;DHT22;63678;47.994;7.854;2023-04-24T03:38:05;11.80;99.90
2453;DHT22;63678;47.994;7.854;2023-04-24T03:40:46;11.70;99.90
2453;DHT22;63678;47.994;7.854;2023-04-24T03:48:46;11.70;99.90
2453;DHT22;63678;47.994;7.854;2023-04-24T03:51:21;11.70;99.90
2453;DHT22;63678;47.994;7.854;2023-04-24T03:53:57;11.70;99.90
2453;DHT22;63678;47.994;7.854;2023-04-24T03:56:33;11.70;99.90
2453;DHT22;63678;47.994;7.854;2023-04-24T03:59:06;11.80;99.90
2453;DHT22;63678;47.994;7.854;2023-04-24T04:04:18;11.70;99.90
2453;DHT22;63678;47.994;7.854;2023-04-24T04:09:25;11.70;99.90
2453;DHT22;63678;47.994;7.854;2023-04-24T04:17:03;11.50;99.90
2453;DHT22;63678;47.994;7.854;2023-04-24T04:22:08;11.50;99.90
2453;DHT22;63678;47.994;7.854;2023-04-24T04:24:45;11.50;99.90
2453;DHT22;63678;47.994;7.854;2023-04-24T04:27:19;11.50;99.90
2453;DHT22;63678;47.994;7.854;2023-04-24T04:30:02;11.50;99.90
2453;DHT22;63678;47.994;7.854;2023-04-24T04:32:44;11.50;99.90
2453;DHT22;63678;47.994;7.854;2023-04-24T04:35:17;11.50;99.90
2453;DHT22;63678;47.994;7.854;2023-04-24T04:40:44;11.60;99.90
2453;DHT22;63678;47.994;7.854;2023-04-24T04:43:16;11.60;99.90
2453;DHT22;63678;47.994;7.854;2023-04-24T04:45:55;11.60;99.90
2453;DHT22;63678;47.994;7.854;2023-04-24T04:48:33;11.60;99.90
2453;DHT22;63678;47.994;7.854;2023-04-24T04:51:09;11.60;99.90
2453;DHT22;63678;47.994;7.854;2023-04-24T04:53:42;11.50;99.90
2453;DHT22;63678;47.994;7.854;2023-04-24T04:58:50;11.50;99.90
2453;DHT22;63678;47.994;7.854;2023-04-24T05:11:43;11.60;99.90
2453;DHT22;63678;47.994;7.854;2023-04-24T05:16:50;11.60;99.90
2453;DHT22;63678;47.994;7.854;2023-04-24T05:19:25;11.60;99.90
2453;DHT22;63678;47.994;7.854;2023-04-24T05:21:57;11.50;99.90
2453;DHT22;63678;47.994;7.854;2023-04-24T05:24:30;11.40;99.90
2453;DHT22;63678;47.994;7.854;2023-04-24T05:32:16;11.40;99.90
2453;DHT22;63678;47.994;7.854;2023-04-24T05:37:22;11.30;99.90
2453;DHT22;63678;47.994;7.854;2023-04-24T05:39:54;11.20;99.90
2453;DHT22;63678;47.994;7.854;2023-04-24T05:45:01;11.20;99.90
2453;DHT22;63678;47.994;7.854;2023-04-24T05:47:33;11.70;99.90
2453;DHT22;63678;47.994;7.854;2023-04-24T05:50:06;11.10;99.90
2453;DHT22;63678;47.994;7.854;2023-04-24T05:52:39;11.10;99.90
2453;DHT22;63678;47.994;7.854;2023-04-24T05:55:25;11.20;99.90
2453;DHT22;63678;47.994;7.854;2023-04-24T05:57:58;11.20;99.90
2453;DHT22;63678;47.994;7.854;2023-04-24T06:00:31;11.10;99.90
2453;DHT22;63678;47.994;7.854;2023-04-24T06:05:42;11.10;99.90
2453;DHT22;63678;47.994;7.854;2023-04-24T06:08:15;11.10;99.90
2453;DHT22;63678;47.994;7.854;2023-04-24T06:10:49;11.10;99.90
2453;DHT22;63678;47.994;7.854;2023-04-24T06:13:24;11.20;99.90
2453;DHT22;63678;47.994;7.854;2023-04-24T06:16:16;11.40;99.90
2453;DHT22;63678;47.994;7.854;2023-04-24T06:21:27;11.50;99.90
2453;DHT22;63678;47.994;7.854;2023-04-24T06:23:59;11.50;99.90
2453;DHT22;63678;47.994;7.854;2023-04-24T06:26:32;11.50;99.90
2453;DHT22;63678;47.994;7.854;2023-04-24T06:31:37;11.30;99.90
2453;DHT22;63678;47.994;7.854;2023-04-24T06:34:09;11.30;99.90
2453;DHT22;63678;47.994;7.854;2023-04-24T06:36:42;11.30;99.90
2453;DHT22;63678;47.994;7.854;2023-04-24T06:39:14;11.20;99.90
2453;DHT22;63678;47.994;7.854;2023-04-24T06:41:46;11.10;99.90
2453;DHT22;63678;47.994;7.854;2023-04-24T06:44:24;11.20;99.90
2453;DHT22;63678;47.994;7.854;2023-04-24T06:46:56;11.20;99.90
2453;DHT22;63678;47.994;7.854;2023-04-24T06:49:29;11.20;99.90
2453;DHT22;63678;47.994;7.854;2023-04-24T06:54:34;11.10;99.90
2453;DHT22;63678;47.994;7.854;2023-04-24T06:57:07;11.00;99.90
2453;DHT22;63678;47.994;7.854;2023-04-24T06:59:40;11.00;99.90
2453;DHT22;63678;47.994;7.854;2023-04-24T07:02:12;11.10;99.90
2453;DHT22;63678;47.994;7.854;2023-04-24T07:07:19;11.30;99.90
2453;DHT22;63678;47.994;7.854;2023-04-24T07:09:52;11.50;99.90
2453;DHT22;63678;47.994;7.854;2023-04-24T07:12:25;11.50;99.90
2453;DHT22;63678;47.994;7.854;2023-04-24T07:17:30;12.00;99.90
2453;DHT22;63678;47.994;7.854;2023-04-24T07:20:03;12.50;99.90
2453;DHT22;63678;47.994;7.854;2023-04-24T07:22:37;12.30;99.90
2453;DHT22;63678;47.994;7.854;2023-04-24T07:27:43;12.30;99.90
2453;DHT22;63678;47.994;7.854;2023-04-24T07:30:15;12.30;99.90
2453;DHT22;63678;47.994;7.854;2023-04-24T07:32:47;12.20;99.90
2453;DHT22;63678;47.994;7.854;2023-04-24T07:35:20;12.80;99.90
2453;DHT22;63678;47.994;7.854;2023-04-24T07:37:53;13.10;99.90
2453;DHT22;63678;47.994;7.854;2023-04-24T07:40:26;14.10;99.90
2453;DHT22;63678;47.994;7.854;2023-04-24T07:42:58;15.50;99.90
2453;DHT22;63678;47.994;7.854;2023-04-24T07:45:31;17.80;99.90
2453;DHT22;63678;47.994;7.854;2023-04-24T07:48:05;18.60;99.90
2453;DHT22;63678;47.994;7.854;2023-04-24T07:50:38;19.70;99.90
2453;DHT22;63678;47.994;7.854;2023-04-24T07:53:10;19.30;99.90
2453;DHT22;63678;47.994;7.854;2023-04-24T07:55:43;17.20;99.90
2453;DHT22;63678;47.994;7.854;2023-04-24T07:58:15;14.40;99.90
2453;DHT22;63678;47.994;7.854;2023-04-24T08:00:47;13.60;99.90
2453;DHT22;63678;47.994;7.854;2023-04-24T08:03:19;13.50;99.90
2453;DHT22;63678;47.994;7.854;2023-04-24T08:05:52;13.00;99.90
2453;DHT22;63678;47.994;7.854;2023-04-24T08:08:25;12.90;99.90
2453;DHT22;63678;47.994;7.854;2023-04-24T08:10:57;12.70;99.90
2453;DHT22;63678;47.994;7.854;2023-04-24T08:13:29;12.50;99.90
2453;DHT22;63678;47.994;7.854;2023-04-24T08:16:01;12.70;99.90
2453;DHT22;63678;47.994;7.854;2023-04-24T08:18:34;12.80;99.90
2453;DHT22;63678;47.994;7.854;2023-04-24T08:21:07;12.90;99.90
2453;DHT22;63678;47.994;7.854;2023-04-24T08:23:40;13.30;99.90
2453;DHT22;63678;47.994;7.854;2023-04-24T08:26:13;13.30;99.90
2453;DHT22;63678;47.994;7.854;2023-04-24T08:28:45;13.10;99.90
2453;DHT22;63678;47.994;7.854;2023-04-24T08:31:17;13.00;99.90
2453;DHT22;63678;47.994;7.854;2023-04-24T08:33:50;12.70;99.90
2453;DHT22;63678;47.994;7.854;2023-04-24T08:36:22;12.80;99.90
2453;DHT22;63678;47.994;7.854;2023-04-24T08:41:37;14.40;99.90
2453;DHT22;63678;47.994;7.854;2023-04-24T08:44:10;15.40;99.90
2453;DHT22;63678;47.994;7.854;2023-04-24T08:46:43;14.90;99.90
2453;DHT22;63678;47.994;7.854;2023-04-24T08:49:18;14.40;99.90
2453;DHT22;63678;47.994;7.854;2023-04-24T08:51:52;14.60;99.90
2453;DHT22;63678;47.994;7.854;2023-04-24T08:54:25;16.10;99.90
2453;DHT22;63678;47.994;7.854;2023-04-24T08:57:01;17.00;99.70
2453;DHT22;63678;47.994;7.854;2023-04-24T08:59:35;17.50;98.60
2453;DHT22;63678;47.994;7.854;2023-04-24T09:02:10;16.70;98.60
2453;DHT22;63678;47.994;7.854;2023-04-24T09:04:44;16.60;99.00
2453;DHT22;63678;47.994;7.854;2023-04-24T09:07:19;15.60;98.60
2453;DHT22;63678;47.994;7.854;2023-04-24T09:09:54;14.90;99.30
2453;DHT22;63678;47.994;7.854;2023-04-24T09:12:26;14.50;99.90
2453;DHT22;63678;47.994;7.854;2023-04-24T09:15:00;15.50;99.10
2453;DHT22;63678;47.994;7.854;2023-04-24T09:17:33;15.90;98.30
2453;DHT22;63678;47.994;7.854;2023-04-24T09:20:06;14.80;99.10
2453;DHT22;63678;47.994;7.854;2023-04-24T09:22:39;14.20;99.80
2453;DHT22;63678;47.994;7.854;2023-04-24T09:25:11;14.10;99.90
2453;DHT22;63678;47.994;7.854;2023-04-24T09:27:45;14.60;99.50
2453;DHT22;63678;47.994;7.854;2023-04-24T09:30:21;15.70;98.00
2453;DHT22;63678;47.994;7.854;2023-04-24T09:33:14;16.20;97.30
2453;DHT22;63678;47.994;7.854;2023-04-24T09:35:51;14.70;98.30
2453;DHT22;63678;47.994;7.854;2023-04-24T09:38:36;13.40;99.70
2453;DHT22;63678;47.994;7.854;2023-04-24T09:41:13;13.10;99.90
2453;DHT22;63678;47.994;7.854;2023-04-24T09:43:45;13.10;99.90
2453;DHT22;63678;47.994;7.854;2023-04-24T09:46:18;13.20;99.90
2453;DHT22;63678;47.994;7.854;2023-04-24T09:48:51;13.50;99.90
2453;DHT22;63678;47.994;7.854;2023-04-24T09:51:34;13.60;99.90
2453;DHT22;63678;47.994;7.854;2023-04-24T09:54:35;14.20;99.90
2453;DHT22;63678;47.994;7.854;2023-04-24T09:59:46;14.10;99.90
2453;DHT22;63678;47.994;7.854;2023-04-24T10:02:20;13.90;99.90
2453;DHT22;63678;47.994;7.854;2023-04-24T10:04:56;14.30;99.90
2453;DHT22;63678;47.994;7.854;2023-04-24T10:07:32;15.60;98.60
2453;DHT22;63678;47.994;7.854;2023-04-24T10:10:26;16.60;96.90
2453;DHT22;63678;47.994;7.854;2023-04-24T10:13:00;17.40;95.90
2453;DHT22;63678;47.994;7.854;2023-04-24T10:15:56;17.50;94.30
2453;DHT22;63678;47.994;7.854;2023-04-24T10:18:33;17.40;94.20
2453;DHT22;63678;47.994;7.854;2023-04-24T10:21:07;18.00;93.90
2453;DHT22;63678;47.994;7.854;2023-04-24T10:23:41;17.50;93.50
2453;DHT22;63678;47.994;7.854;2023-04-24T10:26:16;17.10;93.50
2453;DHT22;63678;47.994;7.854;2023-04-24T10:28:50;17.10;93.80
2453;DHT22;63678;47.994;7.854;2023-04-24T10:31:25;17.10;94.20
2453;DHT22;63678;47.994;7.854;2023-04-24T10:34:01;17.50;93.50
2453;DHT22;63678;47.994;7.854;2023-04-24T10:36:41;17.80;93.70
2453;DHT22;63678;47.994;7.854;2023-04-24T10:39:18;17.60;93.40
2453;DHT22;63678;47.994;7.854;2023-04-24T10:41:58;17.70;93.00
2453;DHT22;63678;47.994;7.854;2023-04-24T10:44:37;17.30;93.40
2453;DHT22;63678;47.994;7.854;2023-04-24T10:47:13;16.40;94.50
2453;DHT22;63678;47.994;7.854;2023-04-24T10:49:50;15.60;95.30
2453;DHT22;63678;47.994;7.854;2023-04-24T10:52:44;16.10;95.50
2453;DHT22;63678;47.994;7.854;2023-04-24T10:55:42;15.80;95.50
2453;DHT22;63678;47.994;7.854;2023-04-24T10:58:24;15.40;95.50
2453;DHT22;63678;47.994;7.854;2023-04-24T11:03:53;14.90;96.70
2453;DHT22;63678;47.994;7.854;2023-04-24T11:06:52;14.20;97.50
2453;DHT22;63678;47.994;7.854;2023-04-24T11:09:28;14.10;98.00
2453;DHT22;63678;47.994;7.854;2023-04-24T11:12:05;14.00;98.00
2453;DHT22;63678;47.994;7.854;2023-04-24T11:14:59;13.80;98.60
2453;DHT22;63678;47.994;7.854;2023-04-24T11:20:28;13.50;99.30
2453;DHT22;63678;47.994;7.854;2023-04-24T11:23:03;13.60;99.40
2453;DHT22;63678;47.994;7.854;2023-04-24T11:25:37;13.50;99.60
2453;DHT22;63678;47.994;7.854;2023-04-24T11:28:14;13.60;99.10
2453;DHT22;63678;47.994;7.854;2023-04-24T11:30:48;13.50;99.70
2453;DHT22;63678;47.994;7.854;2023-04-24T11:33:23;13.80;99.40
2453;DHT22;63678;47.994;7.854;2023-04-24T11:35:56;14.10;99.40
2453;DHT22;63678;47.994;7.854;2023-04-24T11:41:01;14.90;99.10
2453;DHT22;63678;47.994;7.854;2023-04-24T11:46:08;14.60;99.10
2453;DHT22;63678;47.994;7.854;2023-04-24T11:48:45;14.40;99.10
2453;DHT22;63678;47.994;7.854;2023-04-24T11:51:18;14.20;99.70
2453;DHT22;63678;47.994;7.854;2023-04-24T11:53:51;14.10;99.60
2453;DHT22;63678;47.994;7.854;2023-04-24T11:56:35;14.40;99.90
2453;DHT22;63678;47.994;7.854;2023-04-24T12:01:46;14.60;98.70
2453;DHT22;63678;47.994;7.854;2023-04-24T12:04:19;14.50;99.50
2453;DHT22;63678;47.994;7.854;2023-04-24T12:07:03;14.70;99.20
2453;DHT22;63678;47.994;7.854;2023-04-24T12:12:25;14.80;99.90
2453;DHT22;63678;47.994;7.854;2023-04-24T12:14:58;14.40;99.60
2453;DHT22;63678;47.994;7.854;2023-04-24T12:17:53;13.50;99.90
2453;DHT22;63678;47.994;7.854;2023-04-24T12:20:31;13.70;99.90
2453;DHT22;63678;47.994;7.854;2023-04-24T12:23:05;13.80;99.90
2453;DHT22;63678;47.994;7.854;2023-04-24T12:26:00;14.40;99.90
2453;DHT22;63678;47.994;7.854;2023-04-24T12:28:38;14.40;99.90
2453;DHT22;63678;47.994;7.854;2023-04-24T12:31:12;14.30;99.90
2453;DHT22;63678;47.994;7.854;2023-04-24T12:33:44;14.30;99.90
2453;DHT22;63678;47.994;7.854;2023-04-24T12:36:21;14.30;99.90
2453;DHT22;63678;47.994;7.854;2023-04-24T12:38:54;14.40;99.90
2453;DHT22;63678;47.994;7.854;2023-04-24T12:41:26;14.30;99.90
2453;DHT22;63678;47.994;7.854;2023-04-24T12:44:03;14.00;99.90
2453;DHT22;63678;47.994;7.854;2023-04-24T12:51:42;14.10;99.90
2453;DHT22;63678;47.994;7.854;2023-04-24T12:54:15;14.00;99.90
2453;DHT22;63678;47.994;7.854;2023-04-24T12:56:48;14.00;99.90
2453;DHT22;63678;47.994;7.854;2023-04-24T12:59:20;14.30;99.90
2453;DHT22;63678;47.994;7.854;2023-04-24T13:01:52;14.40;99.90
2453;DHT22;63678;47.994;7.854;2023-04-24T13:06:59;15.10;99.90
2453;DHT22;63678;47.994;7.854;2023-04-24T13:12:07;15.40;99.70
2453;DHT22;63678;47.994;7.854;2023-04-24T13:14:40;15.60;99.20
2453;DHT22;63678;47.994;7.854;2023-04-24T13:17:13;15.30;99.10
2453;DHT22;63678;47.994;7.854;2023-04-24T13:19:46;14.80;99.90
2453;DHT22;63678;47.994;7.854;2023-04-24T13:22:20;14.40;99.90
2453;DHT22;63678;47.994;7.854;2023-04-24T13:24:52;14.40;99.90
2453;DHT22;63678;47.994;7.854;2023-04-24T13:27:26;14.80;99.90
2453;DHT22;63678;47.994;7.854;2023-04-24T13:35:07;14.40;99.90
2453;DHT22;63678;47.994;7.854;2023-04-24T13:38:01;14.70;99.90
2453;DHT22;63678;47.994;7.854;2023-04-24T13:40:59;15.00;99.90
2453;DHT22;63678;47.994;7.854;2023-04-24T13:43:52;15.20;99.90
2453;DHT22;63678;47.994;7.854;2023-04-24T13:46:24;15.20;99.90
2453;DHT22;63678;47.994;7.854;2023-04-24T13:48:57;15.10;99.90
2453;DHT22;63678;47.994;7.854;2023-04-24T13:51:30;15.00;99.90
2453;DHT22;63678;47.994;7.854;2023-04-24T13:54:02;14.90;99.90
2453;DHT22;63678;47.994;7.854;2023-04-24T13:56:35;14.50;99.90
2453;DHT22;63678;47.994;7.854;2023-04-24T13:59:07;14.70;99.90
2453;DHT22;63678;47.994;7.854;2023-04-24T14:01:41;14.60;99.90
2453;DHT22;63678;47.994;7.854;2023-04-24T14:06:48;14.30;99.90
2453;DHT22;63678;47.994;7.854;2023-04-24T14:09:20;14.30;99.90
2453;DHT22;63678;47.994;7.854;2023-04-24T14:11:52;14.30;99.90
2453;DHT22;63678;47.994;7.854;2023-04-24T14:14:25;14.20;99.90
2453;DHT22;63678;47.994;7.854;2023-04-24T14:16:58;14.30;99.90
2453;DHT22;63678;47.994;7.854;2023-04-24T14:24:38;13.80;99.90
2453;DHT22;63678;47.994;7.854;2023-04-24T14:27:13;14.70;99.90
2453;DHT22;63678;47.994;7.854;2023-04-24T14:29:45;13.70;99.90
2453;DHT22;63678;47.994;7.854;2023-04-24T14:32:18;13.60;99.90
2453;DHT22;63678;47.994;7.854;2023-04-24T14:34:50;13.70;99.90
2453;DHT22;63678;47.994;7.854;2023-04-24T14:39:55;13.30;99.90
2453;DHT22;63678;47.994;7.854;2023-04-24T14:42:51;13.30;99.90
2453;DHT22;63678;47.994;7.854;2023-04-24T14:45:23;13.30;99.90
2453;DHT22;63678;47.994;7.854;2023-04-24T14:50:30;13.00;99.90
2453;DHT22;63678;47.994;7.854;2023-04-24T14:53:02;13.00;99.90
2453;DHT22;63678;47.994;7.854;2023-04-24T14:58:09;13.00;99.90
2453;DHT22;63678;47.994;7.854;2023-04-24T15:00:41;13.20;99.90
2453;DHT22;63678;47.994;7.854;2023-04-24T15:03:14;13.00;99.90
2453;DHT22;63678;47.994;7.854;2023-04-24T15:08:24;13.10;99.90
2453;DHT22;63678;47.994;7.854;2023-04-24T15:16:02;13.20;99.90
2453;DHT22;63678;47.994;7.854;2023-04-24T15:21:07;13.40;99.90
2453;DHT22;63678;47.994;7.854;2023-04-24T15:28:45;13.40;99.90
2453;DHT22;63678;47.994;7.854;2023-04-24T15:31:19;13.50;99.90
2453;DHT22;63678;47.994;7.854;2023-04-24T15:33:51;13.70;99.90
2453;DHT22;63678;47.994;7.854;2023-04-24T15:36:24;13.90;99.90
2453;DHT22;63678;47.994;7.854;2023-04-24T15:38:56;13.90;99.90
2453;DHT22;63678;47.994;7.854;2023-04-24T15:41:29;14.00;99.90
2453;DHT22;63678;47.994;7.854;2023-04-24T15:44:05;13.70;99.90
2453;DHT22;63678;47.994;7.854;2023-04-24T15:46:37;13.60;99.90
2453;DHT22;63678;47.994;7.854;2023-04-24T15:49:09;13.50;99.90
2453;DHT22;63678;47.994;7.854;2023-04-24T15:54:37;13.50;99.90
2453;DHT22;63678;47.994;7.854;2023-04-24T16:02:17;13.80;99.90
2453;DHT22;63678;47.994;7.854;2023-04-24T16:04:51;13.80;99.90
2453;DHT22;63678;47.994;7.854;2023-04-24T16:07:25;13.80;99.90
2453;DHT22;63678;47.994;7.854;2023-04-24T16:09:57;13.50;99.90
2453;DHT22;63678;47.994;7.854;2023-04-24T16:15:03;13.70;99.90
2453;DHT22;63678;47.994;7.854;2023-04-24T16:22:44;13.50;99.90
2453;DHT22;63678;47.994;7.854;2023-04-24T16:27:50;13.20;99.90
2453;DHT22;63678;47.994;7.854;2023-04-24T16:30:24;13.10;99.90
2453;DHT22;63678;47.994;7.854;2023-04-24T16:38:03;13.20;99.90
2453;DHT22;63678;47.994;7.854;2023-04-24T16:40:35;13.10;99.90
2453;DHT22;63678;47.994;7.854;2023-04-24T16:43:08;13.20;99.90
2453;DHT22;63678;47.994;7.854;2023-04-24T16:45:41;13.20;99.90
2453;DHT22;63678;47.994;7.854;2023-04-24T16:48:13;13.20;99.90
2453;DHT22;63678;47.994;7.854;2023-04-24T16:50:45;13.30;99.90
2453;DHT22;63678;47.994;7.854;2023-04-24T16:53:18;13.10;99.90
2453;DHT22;63678;47.994;7.854;2023-04-24T17:00:56;13.20;99.90
2453;DHT22;63678;47.994;7.854;2023-04-24T17:03:29;13.20;99.90
2453;DHT22;63678;47.994;7.854;2023-04-24T17:08:35;13.10;99.90
2453;DHT22;63678;47.994;7.854;2023-04-24T17:11:07;13.10;99.90
2453;DHT22;63678;47.994;7.854;2023-04-24T17:13:39;13.10;99.90
2453;DHT22;63678;47.994;7.854;2023-04-24T17:16:12;13.10;99.90
2453;DHT22;63678;47.994;7.854;2023-04-24T17:21:17;13.00;99.90
2453;DHT22;63678;47.994;7.854;2023-04-24T17:26:22;13.00;99.90
2453;DHT22;63678;47.994;7.854;2023-04-24T17:34:00;13.00;99.90
2453;DHT22;63678;47.994;7.854;2023-04-24T17:36:33;13.00;99.90
2453;DHT22;63678;47.994;7.854;2023-04-24T17:39:05;12.90;99.90
2453;DHT22;63678;47.994;7.854;2023-04-24T17:44:11;12.90;99.90
2453;DHT22;63678;47.994;7.854;2023-04-24T17:46:43;12.80;99.90
2453;DHT22;63678;47.994;7.854;2023-04-24T17:49:15;12.90;99.90
2453;DHT22;63678;47.994;7.854;2023-04-24T17:56:53;12.80;99.90
2453;DHT22;63678;47.994;7.854;2023-04-24T17:59:26;12.80;99.90
2453;DHT22;63678;47.994;7.854;2023-04-24T18:04:33;12.70;99.90
2453;DHT22;63678;47.994;7.854;2023-04-24T18:07:06;12.70;99.90
2453;DHT22;63678;47.994;7.854;2023-04-24T18:09:38;12.70;99.90
2453;DHT22;63678;47.994;7.854;2023-04-24T18:12:10;12.70;99.90
2453;DHT22;63678;47.994;7.854;2023-04-24T18:14:43;12.60;99.90
2453;DHT22;63678;47.994;7.854;2023-04-24T18:17:15;12.60;99.90
2453;DHT22;63678;47.994;7.854;2023-04-24T18:22:20;12.60;99.90
2453;DHT22;63678;47.994;7.854;2023-04-24T18:24:52;12.60;99.90
2453;DHT22;63678;47.994;7.854;2023-04-24T18:27:24;12.60;99.90
2453;DHT22;63678;47.994;7.854;2023-04-24T18:29:57;12.50;99.90
2453;DHT22;63678;47.994;7.854;2023-04-24T18:32:30;12.50;99.90
2453;DHT22;63678;47.994;7.854;2023-04-24T18:35:03;12.50;99.90
2453;DHT22;63678;47.994;7.854;2023-04-24T18:40:09;12.50;99.90
2453;DHT22;63678;47.994;7.854;2023-04-24T18:42:42;12.50;99.90
2453;DHT22;63678;47.994;7.854;2023-04-24T18:45:15;12.40;99.90
2453;DHT22;63678;47.994;7.854;2023-04-24T18:47:47;12.40;99.90
2453;DHT22;63678;47.994;7.854;2023-04-24T18:50:21;12.40;99.90
2453;DHT22;63678;47.994;7.854;2023-04-24T18:52:53;12.40;99.90
2453;DHT22;63678;47.994;7.854;2023-04-24T18:55:25;12.40;99.90
2453;DHT22;63678;47.994;7.854;2023-04-24T19:00:30;12.40;99.90
2453;DHT22;63678;47.994;7.854;2023-04-24T19:03:03;12.40;99.90
2453;DHT22;63678;47.994;7.854;2023-04-24T19:05:37;12.30;99.90
2453;DHT22;63678;47.994;7.854;2023-04-24T19:10:42;12.30;99.90
2453;DHT22;63678;47.994;7.854;2023-04-24T19:13:14;12.40;99.90
2453;DHT22;63678;47.994;7.854;2023-04-24T19:18:19;12.40;99.90
2453;DHT22;63678;47.994;7.854;2023-04-24T19:20:51;12.30;99.90
2453;DHT22;63678;47.994;7.854;2023-04-24T19:23:25;12.30;99.90
2453;DHT22;63678;47.994;7.854;2023-04-24T19:25:58;12.40;99.90
2453;DHT22;63678;47.994;7.854;2023-04-24T19:28:31;12.30;99.90
2453;DHT22;63678;47.994;7.854;2023-04-24T19:31:03;12.30;99.90
2453;DHT22;63678;47.994;7.854;2023-04-24T19:33:35;12.30;99.90
2453;DHT22;63678;47.994;7.854;2023-04-24T19:38:41;12.30;99.90
2453;DHT22;63678;47.994;7.854;2023-04-24T19:43:46;12.30;99.90
2453;DHT22;63678;47.994;7.854;2023-04-24T19:46:20;12.20;99.90
2453;DHT22;63678;47.994;7.854;2023-04-24T19:51:26;12.20;99.90
2453;DHT22;63678;47.994;7.854;2023-04-24T19:53:58;12.20;99.90
2453;DHT22;63678;47.994;7.854;2023-04-24T19:56:31;12.20;99.90
2453;DHT22;63678;47.994;7.854;2023-04-24T19:59:03;12.20;99.90
2453;DHT22;63678;47.994;7.854;2023-04-24T20:01:36;12.10;99.90
2453;DHT22;63678;47.994;7.854;2023-04-24T20:04:10;12.20;99.90
2453;DHT22;63678;47.994;7.854;2023-04-24T20:06:43;12.10;99.90
2453;DHT22;63678;47.994;7.854;2023-04-24T20:09:15;12.10;99.90
2453;DHT22;63678;47.994;7.854;2023-04-24T20:11:47;12.10;99.90
2453;DHT22;63678;47.994;7.854;2023-04-24T20:14:22;12.10;99.90
2453;DHT22;63678;47.994;7.854;2023-04-24T20:16:54;12.10;99.90
2453;DHT22;63678;47.994;7.854;2023-04-24T20:19:26;12.10;99.90
2453;DHT22;63678;47.994;7.854;2023-04-24T20:21:58;12.10;99.90
2453;DHT22;63678;47.994;7.854;2023-04-24T20:24:31;13.10;99.90
2453;DHT22;63678;47.994;7.854;2023-04-24T20:27:03;12.00;99.90
2453;DHT22;63678;47.994;7.854;2023-04-24T20:37:13;12.00;99.90
2453;DHT22;63678;47.994;7.854;2023-04-24T20:42:21;11.90;99.90
2453;DHT22;63678;47.994;7.854;2023-04-24T20:47:26;11.90;99.90
2453;DHT22;63678;47.994;7.854;2023-04-24T20:49:59;11.90;99.90
2453;DHT22;63678;47.994;7.854;2023-04-24T20:55:06;11.90;99.90
2453;DHT22;63678;47.994;7.854;2023-04-24T20:57:39;11.80;99.90
2453;DHT22;63678;47.994;7.854;2023-04-24T21:02:45;11.80;99.90
2453;DHT22;63678;47.994;7.854;2023-04-24T21:05:17;11.90;99.90
2453;DHT22;63678;47.994;7.854;2023-04-24T21:07:49;11.80;99.90
2453;DHT22;63678;47.994;7.854;2023-04-24T21:10:26;11.80;99.90
2453;DHT22;63678;47.994;7.854;2023-04-24T21:12:58;11.80;99.90
2453;DHT22;63678;47.994;7.854;2023-04-24T21:15:32;11.80;99.90
2453;DHT22;63678;47.994;7.854;2023-04-24T21:18:04;11.80;99.90